This is the latest recevied weather packets stored in our database for station/object W4NRG-1. If no packets are shown the sender has not sent any weather packets the latest 10 day(s).
| Time | Temp. | Humidity | Pressure | Rain* | Wind** | Luminosity | Snow |
|---|---|---|---|---|---|---|---|
| 1777563744 | 19.44° C | 50% | 1009.6 hPa | 0 mm | - | - | - |
| 1777563440 | 18.89° C | 52% | 1009.8 hPa | 0 mm | - | - | - |
| 1777563140 | 18.89° C | 54% | 1009.7 hPa | 0 mm | - | - | - |
| 1777562836 | 18.89° C | 52% | 1009.6 hPa | 0 mm | - | - | - |
| 1777562534 | 19.44° C | 50% | 1009.7 hPa | 0 mm | - | - | - |
| 1777562231 | 18.89° C | 55% | 1009.9 hPa | 0 mm | - | - | - |
| 1777561929 | 19.44° C | 54% | 1009.9 hPa | 0 mm | - | - | - |
| 1777561625 | 18.33° C | 54% | 1010.1 hPa | 0 mm | - | - | - |
| 1777561322 | 18.89° C | 51% | 1010 hPa | 0 mm | - | - | - |
| 1777561022 | 18.89° C | 55% | 1010 hPa | 0 mm | - | - | - |
| 1777560717 | 18.89° C | 56% | 1010 hPa | 0 mm | - | - | - |
| 1777560414 | 18.33° C | 60% | 1010.2 hPa | 0 mm | - | - | - |
| 1777560113 | 18.33° C | 61% | 1010.3 hPa | 0 mm | - | - | - |
| 1777559809 | 18.33° C | 61% | 1010.1 hPa | 0 mm | - | - | - |
| 1777559505 | 17.78° C | 65% | 1010.1 hPa | 0 mm | - | - | - |
| 1777559203 | 17.22° C | 70% | 1010.3 hPa | 0 mm | - | - | - |
| 1777558903 | 17.22° C | 73% | 1010.4 hPa | 0 mm | - | - | - |
| 1777558599 | 16.67° C | 77% | 1010.4 hPa | 0 mm | - | - | - |
| 1777558294 | 16.67° C | 77% | 1010 hPa | 0 mm | - | - | - |
| 1777557991 | 16.11° C | 80% | 1010.1 hPa | 0 mm | - | - | - |
| 1777557688 | 16.11° C | 80% | 1010.1 hPa | 0 mm | - | - | - |
| 1777557384 | 15.56° C | 80% | 1010.1 hPa | 1.78 mm | - | - | - |
| 1777557081 | 15.56° C | 81% | 1010.1 hPa | 1.78 mm | - | - | - |
| 1777556776 | 15.56° C | 81% | 1010.1 hPa | 0 mm | - | - | - |
| 1777556473 | 16.11° C | 80% | 1010.2 hPa | 0 mm | - | - | - |
* Rain latest hour (hover to see other rain measurements)
** Current wind speed in m/s (hover to see current wind gust speed)